CAT,Max TemperatureF,Mean TemperatureF,Min TemperatureF,Max Dew PointF,MeanDew PointF,Min DewpointF,Max Humidity, Mean Humidity, Min Humidity, Max Sea Level PressureIn, Mean Sea Level PressureIn, Min Sea Level PressureIn, Max VisibilityMiles, Mean VisibilityMiles, Min VisibilityMiles, Max Wind SpeedMPH, Mean Wind SpeedMPH, Max Gust SpeedMPH,PrecipitationIn, CloudCover, Events, WindDirDegrees
2013-4-1,88,75,62,70,63,59,88,52,34,30.21,30.12,30.06,6,6,6,15,7,,0.00,2,,19
2013-4-2,88,74,60,70,65,57,88,58,38,30.21,30.08,30.01,6,6,6,16,7,,0.00,2,,337
2013-4-3,91,76,62,66,63,59,88,57,41,30.06,29.99,29.92,6,6,6,9,5,,0.00,1,,7
2013-4-4,86,78,69,70,67,64,88,72,55,30.06,30.02,29.98,6,6,6,14,6,,0.00,2,,95
2013-4-5,77,70,63,63,61,60,88,70,55,30.15,30.09,30.06,6,6,6,24,15,,0.00,4,,106
2013-4-6,80,72,64,57,55,50,77,50,34,30.21,30.12,30.06,6,6,6,14,10,,0.00,2,,114
2013-4-7,87,71,55,59,52,46,82,43,18,30.12,30.05,29.98,6,6,6,13,5,,0.00,,,95
2013-4-8,88,72,55,59,52,45,88,47,22,30.15,30.06,30.01,6,6,6,12,5,,0.00,1,,31
2013-4-9,89,70,51,61,52,48,88,46,25,30.12,30.04,29.98,6,6,6,10,5,,0.00,,,304
2013-4-10,91,73,55,59,55,48,82,48,26,30.06,30.01,29.95,,,,12,4,,0.00,,,318
2013-4-11,91,74,57,55,50,45,77,40,20,30.12,30.03,29.98,6,6,6,14,8,,0.00,1,,80
2013-4-12,87,76,66,66,57,52,73,49,29,30.15,30.09,30.04,6,6,6,15,13,,0.00,1,,97
2013-4-13,87,73,59,61,59,57,88,56,27,30.24,30.18,30.12,6,6,6,17,9,,0.00,2,,86
2013-4-14,86,72,57,59,57,54,94,56,33,30.27,30.17,30.09,6,6,6,15,7,,0.00,2,,103
2013-4-15,87,72,57,63,57,50,88,55,27,30.18,30.12,30.04,6,6,6,12,5,,0.00,2,,135
2013-4-16,87,72,57,55,47,36,88,43,16,30.12,30.06,29.98,,,,16,6,,0.00,,,100
2013-4-17,86,67,48,64,52,46,94,48,19,30.09,30.01,29.92,6,6,6,9,6,,0.00,,,326
2013-4-18,89,73,59,57,51,46,64,40,24,30.01,29.96,29.89,,,,12,7,,0.00,,,332
2013-4-19,90,73,57,61,57,50,77,51,24,30.01,29.97,29.92,6,6,6,10,8,,0.00,1,,2
2013-4-20,88,78,67,63,59,54,65,44,26,30.06,30.02,29.98,6,6,6,15,7,,0.00,1,,288
2013-4-21,89,76,64,63,54,48,88,42,26,30.12,30.05,29.98,6,6,6,12,10,,0.00,1,,185
2013-4-22,84,70,57,57,44,36,64,37,20,30.12,30.06,29.98,6,6,6,12,8,,0.00,,,188
2013-4-23,86,68,50,46,40,34,54,31,19,30.09,30.05,29.98,6,6,6,18,8,,0.00,,,152
2013-4-24,86,72,57,59,53,43,59,42,19,30.21,30.14,30.09,6,6,6,17,10,,0.00,2,Thunderstorm,107
2013-4-25,81,72,62,62,58,54,88,59,35,30.30,30.23,30.15,6,6,6,16,10,,0.00,2,,108
2013-4-26,83,70,57,54,48,41,77,43,23,30.27,30.19,30.12,6,6,6,15,9,,0.00,1,,110
2013-4-27,81,68,55,52,49,46,77,45,30,30.24,30.16,30.09,6,6,6,15,10,,0.00,1,,104
2013-4-28,82,66,51,54,50,46,88,47,26,30.21,30.15,30.09,6,6,6,12,7,,0.00,1,,102
2013-4-29,81,64,47,59,53,46,87,54,26,30.21,30.15,30.06,6,6,6,12,4,,0.00,1,,343
2013-4-30,84,68,51,59,52,46,77,49,39,30.27,30.21,30.04,6,6,6,21,11,,0.00,1,,99